createdAt,value
2023-07-12T00:01:25.294Z,79.72
2023-07-12T00:03:53.594Z,79.61
2023-07-12T00:06:34.915Z,79.83
2023-07-12T00:09:04.667Z,79.71
2023-07-12T00:11:32.873Z,79.54
2023-07-12T00:14:00.550Z,79.74
2023-07-12T00:16:40.007Z,79.97
2023-07-12T00:19:14.276Z,79.72
2023-07-12T00:21:42.401Z,79.82
2023-07-12T00:24:10.820Z,79.92
2023-07-12T00:26:39.250Z,79.78
2023-07-12T00:29:09.350Z,79.77
2023-07-12T00:31:39.930Z,79.54
2023-07-12T00:34:07.915Z,79.38
2023-07-12T00:36:36.395Z,79.28
2023-07-12T00:39:06.495Z,79.46
2023-07-12T00:42:10.265Z,79.29
2023-07-12T00:44:46.083Z,79.60
2023-07-12T00:47:15.043Z,79.57
2023-07-12T00:49:46.879Z,79.42
2023-07-12T00:52:18.509Z,79.31
2023-07-12T00:54:48.623Z,79.36
2023-07-12T00:57:16.537Z,79.20
2023-07-12T00:59:46.218Z,79.10
2023-07-12T01:02:14.626Z,79.14
2023-07-12T01:04:45.406Z,79.37
2023-07-12T01:07:17.387Z,79.34
2023-07-12T01:09:45.314Z,79.63
2023-07-12T01:12:14.502Z,79.69
2023-07-12T01:14:43.078Z,79.67
2023-07-12T01:17:11.050Z,79.70
2023-07-12T01:19:40.212Z,79.73
2023-07-12T01:22:09.026Z,79.60
2023-07-12T01:24:37.634Z,79.65
2023-07-12T01:27:15.517Z,79.92
2023-07-12T01:29:43.492Z,80.04
2023-07-12T01:32:12.803Z,80.03
2023-07-12T01:34:40.724Z,80.17
2023-07-12T01:37:08.459Z,80.09
2023-07-12T01:39:36.497Z,80.20
2023-07-12T01:42:05.918Z,80.49
2023-07-12T01:44:33.776Z,80.78
2023-07-12T01:47:01.465Z,80.87
2023-07-12T01:49:29.337Z,81.00
2023-07-12T01:51:57.152Z,81.27
2023-07-12T01:54:25.076Z,81.44
2023-07-12T01:56:53.022Z,81.47
2023-07-12T01:59:20.921Z,81.66
2023-07-12T02:01:49.326Z,81.82
2023-07-12T02:04:18.103Z,82.08
2023-07-12T02:06:45.856Z,82.18
2023-07-12T02:09:13.994Z,82.55
2023-07-12T02:11:42.605Z,82.58
2023-07-12T02:14:10.612Z,82.81
2023-07-12T02:16:38.325Z,83.02
2023-07-12T02:19:06.322Z,83.34
2023-07-12T02:21:33.961Z,83.42
2023-07-12T02:24:02.236Z,83.70
2023-07-12T02:26:30.019Z,83.76
2023-07-12T02:28:58.023Z,83.83
2023-07-12T02:31:26.417Z,84.02
2023-07-12T02:33:57.285Z,84.09
2023-07-12T02:36:25.274Z,84.12
2023-07-12T02:38:53.290Z,84.19
2023-07-12T02:41:21.063Z,84.42
2023-07-12T02:43:49.000Z,84.40
2023-07-12T02:46:17.193Z,84.57
2023-07-12T02:48:45.461Z,84.73
2023-07-12T02:51:13.598Z,84.86
2023-07-12T02:53:41.839Z,85.06
2023-07-12T02:56:10.065Z,85.25
2023-07-12T02:58:38.579Z,85.26
2023-07-12T03:01:06.984Z,85.40
2023-07-12T03:03:34.995Z,85.59
2023-07-12T03:06:07.412Z,85.53
2023-07-12T03:08:35.711Z,85.51
2023-07-12T03:11:05.562Z,85.65
2023-07-12T03:13:33.520Z,85.62
2023-07-12T03:16:05.414Z,85.80
2023-07-12T03:18:33.657Z,85.97
2023-07-12T03:21:03.436Z,86.06
2023-07-12T03:23:31.798Z,86.18
2023-07-12T03:25:59.790Z,86.34
2023-07-12T03:28:27.720Z,86.41
2023-07-12T03:31:06.057Z,86.49
2023-07-12T03:33:35.109Z,86.36
2023-07-12T03:36:04.010Z,86.42
2023-07-12T03:38:32.642Z,86.42
2023-07-12T03:41:06.519Z,86.46
2023-07-12T03:43:34.911Z,86.37
2023-07-12T03:46:03.584Z,86.35
2023-07-12T03:48:31.574Z,86.23
2023-07-12T03:50:59.991Z,86.32
2023-07-12T03:53:29.688Z,86.22
2023-07-12T03:55:59.975Z,86.00
2023-07-12T03:58:34.853Z,85.91
2023-07-12T04:01:05.295Z,85.33
2023-07-12T04:03:33.931Z,85.03
2023-07-12T04:06:04.191Z,84.15
2023-07-12T04:08:33.025Z,84.05
2023-07-12T04:11:01.230Z,83.45
2023-07-12T04:13:29.317Z,82.99
2023-07-12T04:16:00.338Z,82.36
2023-07-12T04:18:29.114Z,81.96
2023-07-12T04:21:02.848Z,81.35
2023-07-12T04:23:30.514Z,80.84
2023-07-12T04:26:02.722Z,80.52
2023-07-12T04:28:32.477Z,80.39
2023-07-12T04:31:12.458Z,80.04
2023-07-12T04:33:40.607Z,79.78
2023-07-12T04:36:10.769Z,79.23
2023-07-12T04:38:38.472Z,78.66
2023-07-12T04:41:06.800Z,78.48
2023-07-12T04:43:34.788Z,77.95
2023-07-12T04:46:02.722Z,77.50
2023-07-12T04:48:31.599Z,76.68
2023-07-12T04:51:01.191Z,75.62
2023-07-12T04:53:29.500Z,75.45
2023-07-12T04:55:57.476Z,74.77
2023-07-12T04:58:25.180Z,73.98
2023-07-12T05:00:54.113Z,74.42
2023-07-12T05:03:22.074Z,73.70
2023-07-12T05:05:50.205Z,73.27
2023-07-12T05:08:18.233Z,73.20
2023-07-12T05:10:45.956Z,72.06
2023-07-12T05:13:13.770Z,71.49
2023-07-12T05:15:41.456Z,70.87
2023-07-12T05:18:09.428Z,71.00
2023-07-12T05:20:37.976Z,71.13
2023-07-12T05:23:05.873Z,71.21
2023-07-12T05:25:33.551Z,70.11
2023-07-12T05:28:04.149Z,70.00
2023-07-12T05:30:31.962Z,69.72
2023-07-12T05:32:59.974Z,69.80
2023-07-12T05:35:27.717Z,69.04
2023-07-12T05:37:55.708Z,68.01
2023-07-12T05:40:23.454Z,67.14
2023-07-12T05:42:51.564Z,66.36
2023-07-12T05:45:19.260Z,65.46
2023-07-12T05:47:50.703Z,65.41
2023-07-12T05:50:20.314Z,64.21
2023-07-12T05:52:49.495Z,64.41
2023-07-12T05:55:19.058Z,64.45
2023-07-12T05:57:47.788Z,65.23
2023-07-12T06:00:16.721Z,65.05
2023-07-12T06:02:44.659Z,65.29
2023-07-12T06:05:12.956Z,63.05
2023-07-12T06:07:40.639Z,61.01
2023-07-12T06:10:09.455Z,61.19
2023-07-12T06:12:37.476Z,61.53
2023-07-12T06:15:07.073Z,60.78
2023-07-12T06:17:35.077Z,58.72
2023-07-12T06:20:04.127Z,59.77
2023-07-12T06:22:32.324Z,60.62
2023-07-12T06:25:00.140Z,59.66
2023-07-12T06:27:28.070Z,59.29
2023-07-12T06:29:55.823Z,59.48
2023-07-12T06:32:23.572Z,58.88
2023-07-12T06:34:51.462Z,57.56
2023-07-12T06:37:19.250Z,57.34
2023-07-12T06:39:47.501Z,55.49
2023-07-12T06:42:15.150Z,55.41
2023-07-12T06:44:42.798Z,56.50
2023-07-12T06:47:10.616Z,56.32
2023-07-12T06:49:38.238Z,55.79
2023-07-12T06:52:06.086Z,55.89
2023-07-12T06:54:34.116Z,54.91
2023-07-12T06:57:01.975Z,55.80
2023-07-12T06:59:29.633Z,56.16
2023-07-12T07:01:57.404Z,56.18
2023-07-12T07:04:25.596Z,56.44
2023-07-12T07:06:53.366Z,56.55
2023-07-12T07:09:21.233Z,56.19
2023-07-12T07:11:48.938Z,55.87
2023-07-12T07:14:16.600Z,56.15
2023-07-12T07:16:44.471Z,56.31
2023-07-12T07:19:12.212Z,56.83
2023-07-12T07:21:42.565Z,56.68
2023-07-12T07:24:10.419Z,56.79
2023-07-12T07:26:38.129Z,56.43
2023-07-12T07:29:05.990Z,55.44
2023-07-12T07:31:33.663Z,56.20
2023-07-12T07:34:01.588Z,56.17
2023-07-12T07:36:29.255Z,55.44
2023-07-12T07:38:56.910Z,54.86
2023-07-12T07:41:24.635Z,54.79
2023-07-12T07:43:52.460Z,54.84
2023-07-12T07:46:20.144Z,54.56
2023-07-12T07:48:48.464Z,53.80
2023-07-12T07:51:16.421Z,53.44
2023-07-12T07:53:44.455Z,52.76
2023-07-12T07:56:12.309Z,52.17
2023-07-12T07:58:40.425Z,53.08
2023-07-12T08:01:08.332Z,53.37
2023-07-12T08:03:36.447Z,53.17
2023-07-12T08:06:06.541Z,52.50
2023-07-12T08:08:36.464Z,52.78
2023-07-12T08:11:09.371Z,52.13
2023-07-12T08:13:37.583Z,52.23
2023-07-12T08:16:05.872Z,51.76
2023-07-12T08:18:34.645Z,52.25
2023-07-12T08:21:02.486Z,51.39
2023-07-12T08:23:30.897Z,49.33
2023-07-12T08:25:58.932Z,48.16
2023-07-12T08:28:26.610Z,48.01
2023-07-12T08:30:54.298Z,47.41
2023-07-12T08:33:22.000Z,47.10
2023-07-12T08:35:50.509Z,46.09
2023-07-12T08:38:20.366Z,44.67
2023-07-12T08:40:52.389Z,44.39
2023-07-12T08:43:32.814Z,44.08
2023-07-12T08:46:07.669Z,44.20
2023-07-12T08:48:35.703Z,43.49
2023-07-12T08:51:12.042Z,42.71
2023-07-12T08:53:41.657Z,42.78
2023-07-12T08:56:20.159Z,42.08
2023-07-12T08:58:51.661Z,41.84
2023-07-12T09:01:33.534Z,42.28
2023-07-12T09:04:01.284Z,42.89
2023-07-12T09:06:29.141Z,42.80
2023-07-12T09:08:56.904Z,43.23
2023-07-12T09:11:29.860Z,43.40
2023-07-12T09:13:58.265Z,42.38
2023-07-12T09:16:31.114Z,43.24
2023-07-12T09:19:14.235Z,43.47
2023-07-12T09:21:48.387Z,44.20
2023-07-12T09:24:22.737Z,43.33
2023-07-12T09:26:51.314Z,43.65
2023-07-12T09:29:23.712Z,43.53
2023-07-12T09:31:52.954Z,43.80
2023-07-12T09:34:25.950Z,43.86
2023-07-12T09:37:00.239Z,44.79
2023-07-12T09:39:28.102Z,44.55
2023-07-12T09:42:02.192Z,44.52
2023-07-12T09:44:31.503Z,44.40
2023-07-12T09:47:27.166Z,45.18
2023-07-12T09:50:07.650Z,46.11
2023-07-12T09:52:47.992Z,46.22
2023-07-12T09:55:21.304Z,46.31
2023-07-12T09:58:06.367Z,45.75
2023-07-12T10:00:57.754Z,46.52
2023-07-12T10:03:29.873Z,46.37
2023-07-12T10:06:26.949Z,46.64
2023-07-12T10:09:47.926Z,46.18
2023-07-12T10:12:25.046Z,47.10
2023-07-12T10:14:54.734Z,46.64
2023-07-12T10:17:29.580Z,46.87
2023-07-12T10:19:57.576Z,46.96
2023-07-12T10:22:36.311Z,47.57
2023-07-12T10:25:11.555Z,48.18
2023-07-12T10:27:47.061Z,47.71
2023-07-12T10:30:18.772Z,47.89
2023-07-12T10:32:51.561Z,48.16
2023-07-12T10:35:42.105Z,47.99
2023-07-12T10:38:15.457Z,48.16
2023-07-12T10:40:55.563Z,48.43
2023-07-12T10:43:32.313Z,48.49
2023-07-12T10:46:06.073Z,48.68
2023-07-12T10:48:34.032Z,48.77
2023-07-12T10:51:46.053Z,48.72
2023-07-12T10:54:36.775Z,49.14
2023-07-12T10:57:19.827Z,49.36
2023-07-12T10:59:47.792Z,49.98
2023-07-12T11:02:40.210Z,50.21
2023-07-12T11:05:38.170Z,50.06
2023-07-12T11:08:06.246Z,50.33
2023-07-12T11:10:37.166Z,50.52
2023-07-12T11:13:15.136Z,50.78
2023-07-12T11:15:52.331Z,50.83
2023-07-12T11:18:26.198Z,51.08
2023-07-12T11:21:02.195Z,51.61
2023-07-12T11:23:39.611Z,52.09
2023-07-12T11:26:22.547Z,52.25
2023-07-12T11:28:51.831Z,52.83
2023-07-12T11:31:28.382Z,53.04
2023-07-12T11:34:11.612Z,53.46
2023-07-12T11:36:40.599Z,53.98
2023-07-12T11:39:19.842Z,54.89
2023-07-12T11:41:58.950Z,55.97
2023-07-12T11:44:27.094Z,56.48
2023-07-12T11:46:55.501Z,57.03
2023-07-12T11:49:27.672Z,57.55
2023-07-12T11:51:58.108Z,57.81
2023-07-12T11:54:29.680Z,58.36
2023-07-12T11:57:03.682Z,58.62
2023-07-12T11:59:37.589Z,59.00
2023-07-12T12:02:11.977Z,59.20
2023-07-12T12:04:40.241Z,59.27
2023-07-12T12:07:33.997Z,59.46
2023-07-12T12:10:04.508Z,59.74
2023-07-12T12:12:34.471Z,59.84
2023-07-12T12:15:02.932Z,59.91
2023-07-12T12:17:33.462Z,60.00
2023-07-12T12:20:12.776Z,60.21
2023-07-12T12:22:43.165Z,60.09
2023-07-12T12:25:19.158Z,59.87
2023-07-12T12:27:48.095Z,59.73
2023-07-12T12:30:15.766Z,59.41
2023-07-12T12:33:21.649Z,59.27
2023-07-12T12:35:55.714Z,59.48
2023-07-12T12:38:27.536Z,59.37
2023-07-12T12:41:14.189Z,59.33
2023-07-12T12:43:56.818Z,59.59
2023-07-12T12:46:25.943Z,59.42
2023-07-12T12:53:57.043Z,59.37
2023-07-12T13:02:41.223Z,58.55
2023-07-12T13:04:54.944Z,58.48
2023-07-12T13:07:40.317Z,58.67
2023-07-12T13:15:38.569Z,59.10
2023-07-12T13:17:01.297Z,59.43
2023-07-12T13:19:00.349Z,59.53
2023-07-12T13:21:19.071Z,59.63
2023-07-12T13:23:47.584Z,59.84
2023-07-12T13:26:17.842Z,60.01
2023-07-12T13:28:46.253Z,60.04
2023-07-12T13:31:17.443Z,60.19
2023-07-12T13:33:55.582Z,59.97
2023-07-12T13:36:37.009Z,60.26
2023-07-12T13:46:56.170Z,60.67
2023-07-12T13:49:23.936Z,60.69
2023-07-12T13:51:51.919Z,60.73
2023-07-12T13:54:21.141Z,60.85
2023-07-12T13:56:48.989Z,60.71
2023-07-12T13:59:19.066Z,61.01
2023-07-12T14:02:51.971Z,60.91
2023-07-12T14:04:39.006Z,60.80
2023-07-12T14:08:21.745Z,61.19
2023-07-12T14:12:43.684Z,61.73
2023-07-12T14:15:31.701Z,62.41
2023-07-12T14:17:59.405Z,62.39
2023-07-12T14:20:28.217Z,62.20
2023-07-12T14:22:56.250Z,61.18
2023-07-12T14:25:24.609Z,61.47
2023-07-12T14:27:52.321Z,60.86
2023-07-12T14:32:52.526Z,59.93
2023-07-12T14:35:22.360Z,59.32
2023-07-12T14:37:50.828Z,58.84
2023-07-12T14:40:19.853Z,59.01
2023-07-12T14:42:48.420Z,59.31
2023-07-12T14:45:20.634Z,59.35
2023-07-12T14:47:49.414Z,59.78
2023-07-12T14:50:21.327Z,60.12
2023-07-12T14:52:49.359Z,60.34
2023-07-12T14:55:18.831Z,60.77
2023-07-12T14:58:13.208Z,60.86
2023-07-12T15:00:34.809Z,60.55
2023-07-12T15:03:02.805Z,60.00
2023-07-12T15:05:30.693Z,59.36
2023-07-12T15:07:58.342Z,58.80
2023-07-12T15:10:26.074Z,58.89
2023-07-12T15:13:03.358Z,59.30
2023-07-12T15:15:32.930Z,59.31
2023-07-12T15:18:12.831Z,59.24
2023-07-12T15:20:42.220Z,59.37
2023-07-12T15:23:17.783Z,59.68
2023-07-12T15:25:48.374Z,59.85
2023-07-12T15:28:17.198Z,60.01
2023-07-12T15:30:46.169Z,60.08
2023-07-12T15:33:28.463Z,60.01
2023-07-12T15:36:04.072Z,59.97
2023-07-12T15:38:32.032Z,60.14
2023-07-12T15:41:04.367Z,60.08
2023-07-12T15:43:37.330Z,60.24
2023-07-12T15:46:07.575Z,60.32
2023-07-12T15:48:36.038Z,60.50
2023-07-12T15:51:21.895Z,60.54
2023-07-12T15:53:54.137Z,60.68
2023-07-12T15:56:34.033Z,61.05
2023-07-12T15:59:05.628Z,61.24
2023-07-12T16:01:33.920Z,61.43
2023-07-12T16:04:04.252Z,61.04
2023-07-12T16:06:33.034Z,60.73
2023-07-12T16:09:00.958Z,60.96
2023-07-12T16:11:35.664Z,61.01
2023-07-12T16:14:14.720Z,61.07
2023-07-12T16:16:42.679Z,61.03
2023-07-12T16:19:12.063Z,61.17
2023-07-12T16:21:40.575Z,61.56
2023-07-12T16:24:12.448Z,61.47
2023-07-12T16:26:41.267Z,61.19
2023-07-12T16:29:09.660Z,61.05
2023-07-12T16:31:47.137Z,61.44
2023-07-12T16:34:17.586Z,61.61
2023-07-12T16:36:47.037Z,61.91
2023-07-12T16:39:15.743Z,62.05
2023-07-12T16:41:44.373Z,62.19
2023-07-12T16:44:20.881Z,62.55
2023-07-12T16:46:49.405Z,62.94
2023-07-12T16:49:17.989Z,63.10
2023-07-12T16:52:01.865Z,63.26
2023-07-12T16:54:31.144Z,63.48
2023-07-12T16:56:59.477Z,63.68
2023-07-12T16:59:29.550Z,64.07
2023-07-12T17:02:00.475Z,64.11
2023-07-12T17:04:29.975Z,64.31
2023-07-12T17:06:59.169Z,64.80
2023-07-12T17:09:29.418Z,64.55
2023-07-12T17:11:57.537Z,65.41
2023-07-12T17:14:25.493Z,67.67
2023-07-12T17:16:53.617Z,70.79
2023-07-12T17:19:22.729Z,72.89
2023-07-12T17:21:51.628Z,74.01
2023-07-12T17:24:19.415Z,75.97
2023-07-12T17:26:47.263Z,79.20
2023-07-12T17:29:15.642Z,81.03
2023-07-12T17:31:46.451Z,81.48
2023-07-12T17:34:21.601Z,83.01
2023-07-12T17:36:49.879Z,83.03
2023-07-12T17:39:17.826Z,84.09
2023-07-12T17:41:45.863Z,87.16
2023-07-12T17:44:17.717Z,86.52
2023-07-12T17:46:48.306Z,87.36
2023-07-12T17:49:16.873Z,88.30
2023-07-12T17:51:44.651Z,88.85
2023-07-12T17:54:13.749Z,89.15
2023-07-12T17:56:42.853Z,90.56
2023-07-12T17:59:14.205Z,91.46
2023-07-12T18:01:44.098Z,91.86
2023-07-12T18:04:13.305Z,93.55
2023-07-12T18:06:41.069Z,93.66
2023-07-12T18:09:08.820Z,93.50
2023-07-12T18:11:42.282Z,94.68
2023-07-12T18:14:22.598Z,95.55
2023-07-12T18:16:52.420Z,95.94
2023-07-12T18:19:20.510Z,96.52
2023-07-12T18:21:49.461Z,96.93
2023-07-12T18:24:23.994Z,97.53
2023-07-12T18:26:52.392Z,98.28
2023-07-12T18:29:20.316Z,98.85
2023-07-12T18:31:48.598Z,99.72
2023-07-12T18:34:17.481Z,100.00
2023-07-12T18:36:45.612Z,100.00
2023-07-12T18:39:16.593Z,100.00
2023-07-12T18:41:44.313Z,100.00
2023-07-12T18:44:14.613Z,100.00
2023-07-12T18:46:43.059Z,100.00
2023-07-12T18:49:11.553Z,100.00
2023-07-12T18:51:39.287Z,100.00
2023-07-12T18:54:17.501Z,100.00
2023-07-12T18:56:45.349Z,100.00
2023-07-12T18:59:13.084Z,100.00
2023-07-12T19:01:41.053Z,100.00
2023-07-12T19:04:09.091Z,100.00
2023-07-12T19:06:37.393Z,100.00
2023-07-12T19:09:06.221Z,100.00
2023-07-12T19:11:38.969Z,100.00
2023-07-12T19:14:07.954Z,100.00
2023-07-12T19:16:36.489Z,100.00
2023-07-12T19:19:04.589Z,100.00
2023-07-12T19:21:33.742Z,100.00
2023-07-12T19:24:02.337Z,100.00
2023-07-12T19:26:32.255Z,100.00
2023-07-12T19:29:00.001Z,100.00
2023-07-12T19:31:40.332Z,100.00
2023-07-12T19:34:19.552Z,100.00
2023-07-12T19:36:48.195Z,100.00
2023-07-12T19:39:15.823Z,100.00
2023-07-12T19:41:43.854Z,100.00
2023-07-12T19:44:16.345Z,100.00
2023-07-12T19:46:45.500Z,100.00
2023-07-12T19:49:14.556Z,100.00
2023-07-12T19:51:44.938Z,100.00
2023-07-12T19:54:15.201Z,100.00
2023-07-12T19:56:44.007Z,100.00
2023-07-12T19:59:12.134Z,100.00
2023-07-12T20:01:40.583Z,100.00
2023-07-12T20:04:08.853Z,100.00
2023-07-12T20:06:36.609Z,100.00
2023-07-12T20:09:05.200Z,100.00
2023-07-12T20:11:34.595Z,100.00
2023-07-12T20:14:03.040Z,100.00
2023-07-12T20:16:32.598Z,100.00
2023-07-12T20:19:00.982Z,100.00
2023-07-12T20:21:29.587Z,100.00
2023-07-12T20:23:57.326Z,100.00
2023-07-12T20:26:24.952Z,100.00
2023-07-12T20:28:52.671Z,100.00
2023-07-12T20:31:21.569Z,100.00
2023-07-12T20:33:49.436Z,100.00
2023-07-12T20:36:17.408Z,100.00
2023-07-12T20:38:45.300Z,100.00
2023-07-12T20:41:13.402Z,100.00
2023-07-12T20:43:41.664Z,100.00
2023-07-12T20:46:10.981Z,100.00
2023-07-12T20:48:39.307Z,100.00
2023-07-12T20:51:12.950Z,100.00
2023-07-12T20:53:44.954Z,100.00
2023-07-12T20:56:15.100Z,100.00
2023-07-12T20:58:43.006Z,100.00
2023-07-12T21:01:13.261Z,100.00
2023-07-12T21:03:41.214Z,100.00
2023-07-12T21:06:09.341Z,100.00
2023-07-12T21:08:38.045Z,100.00
2023-07-12T21:11:06.524Z,100.00
2023-07-12T21:13:34.837Z,100.00
2023-07-12T21:16:04.977Z,100.00
2023-07-12T21:18:33.114Z,100.00
2023-07-12T21:21:01.033Z,100.00
2023-07-12T21:23:29.827Z,100.00
2023-07-12T21:25:59.579Z,100.00
2023-07-12T21:28:28.120Z,100.00
2023-07-12T21:30:56.496Z,100.00
2023-07-12T21:33:24.497Z,100.00
2023-07-12T21:35:57.265Z,100.00
2023-07-12T21:38:33.005Z,100.00
2023-07-12T21:41:05.072Z,100.00
2023-07-12T21:43:32.777Z,100.00
2023-07-12T21:46:01.239Z,100.00
2023-07-12T21:48:29.123Z,100.00
2023-07-12T21:50:58.241Z,100.00
2023-07-12T21:53:26.241Z,100.00
2023-07-12T21:55:53.972Z,100.00
2023-07-12T21:58:22.283Z,100.00
2023-07-12T22:00:50.006Z,100.00
2023-07-12T22:03:17.867Z,100.00
2023-07-12T22:05:46.671Z,100.00
2023-07-12T22:08:15.216Z,100.00
2023-07-12T22:10:43.702Z,100.00
2023-07-12T22:13:11.488Z,100.00
2023-07-12T22:15:40.064Z,100.00
2023-07-12T22:18:08.200Z,100.00
2023-07-12T22:20:36.984Z,100.00
2023-07-12T22:23:04.995Z,100.00
2023-07-12T22:25:33.778Z,100.00
2023-07-12T22:28:01.552Z,100.00
2023-07-12T22:30:33.844Z,100.00
2023-07-12T22:33:02.334Z,100.00
2023-07-12T22:35:31.884Z,100.00
2023-07-12T22:38:00.920Z,100.00
2023-07-12T22:40:30.266Z,100.00
2023-07-12T22:42:58.878Z,100.00
2023-07-12T22:57:58.367Z,100.00
2023-07-12T23:00:26.674Z,100.00
2023-07-12T23:02:54.631Z,100.00
2023-07-12T23:05:22.563Z,100.00
2023-07-12T23:07:50.670Z,100.00
2023-07-12T23:10:21.168Z,100.00
2023-07-12T23:12:49.907Z,100.00
2023-07-12T23:15:21.703Z,100.00
2023-07-12T23:17:52.532Z,100.00
2023-07-12T23:20:21.303Z,100.00
2023-07-12T23:22:49.444Z,100.00
2023-07-12T23:25:17.823Z,100.00
2023-07-12T23:27:48.359Z,100.00
2023-07-12T23:30:16.211Z,100.00
2023-07-12T23:32:43.890Z,100.00
2023-07-12T23:35:11.693Z,100.00
2023-07-12T23:37:39.716Z,100.00
2023-07-12T23:40:08.433Z,100.00
2023-07-12T23:42:37.807Z,100.00
2023-07-12T23:45:09.084Z,100.00
2023-07-12T23:47:36.843Z,100.00
2023-07-12T23:50:05.631Z,100.00
2023-07-12T23:52:33.348Z,100.00
2023-07-12T23:55:01.780Z,100.00
2023-07-12T23:57:30.013Z,100.00
2023-07-12T23:59:58.419Z,100.00
